Time;durP1;ratioP1;P1;durP2;ratioP2;P2;SDS_P1;SDS_P2;PMS_P1;PMS_P2;Temp;Humidity;BMP_temperature;BMP_pressure;BME280_temperature;BME280_humidity;BME280_pressure;Samples;Min_cycle;Max_cycle;Signal;HPM_P1;HPM_P2
2023/10/16 00:00:47;;;;;;;7.50;3.70;;;;;;;5.46;100.00;102405.91;4878312;29;20068;-77
2023/10/16 00:03:14;;;;;;;6.32;3.42;;;;;;;5.51;100.00;102412.16;4890897;29;20059;-77
2023/10/16 00:05:45;;;;;;;8.80;3.63;;;;;;;5.55;100.00;102408.78;4865279;29;20089;-77
2023/10/16 00:08:16;;;;;;;7.05;3.78;;;;;;;5.56;100.00;102404.41;4886237;29;20043;-77
2023/10/16 00:10:43;;;;;;;;;;;;;;;5.65;100.00;102409.00;4866044;29;20512;-77
2023/10/16 00:13:11;;;;;;;8.55;2.90;;;;;;;5.67;100.00;102399.41;4884910;29;20072;-77
2023/10/16 00:15:49;;;;;;;11.85;3.70;;;;;;;5.64;100.00;102400.25;4885391;29;20045;-77
2023/10/16 00:18:22;;;;;;;12.00;3.95;;;;;;;5.67;100.00;102399.41;4862609;29;20048;-77
2023/10/16 00:20:49;;;;;;;6.60;2.92;;;;;;;5.69;100.00;102400.34;4881996;29;20116;-76
2023/10/16 00:23:17;;;;;;;8.10;3.35;;;;;;;5.70;100.00;102397.75;4900526;29;20401;-76
2023/10/16 00:25:44;;;;;;;7.28;3.20;;;;;;;5.71;100.00;102396.91;4876673;29;20050;-77
2023/10/16 00:28:11;;;;;;;8.75;3.25;;;;;;;5.74;100.00;102398.72;4861895;29;20093;-76
2023/10/16 00:30:38;;;;;;;6.82;3.33;;;;;;;5.74;100.00;102396.97;4882061;29;20528;-77
2023/10/16 00:33:06;;;;;;;6.97;3.30;;;;;;;5.77;100.00;102409.28;4880865;29;20131;-76
2023/10/16 00:35:32;;;;;;;6.03;3.30;;;;;;;5.78;100.00;102408.44;4883693;29;20045;-76
2023/10/16 00:37:58;;;;;;;9.50;3.13;;;;;;;5.78;100.00;102405.78;4881635;29;20401;-77
2023/10/16 00:40:33;;;;;;;8.90;3.65;;;;;;;5.77;100.00;102409.28;4864784;29;20037;-76
2023/10/16 00:43:11;;;;;;;7.22;3.40;;;;;;;5.80;100.00;102399.72;4864600;29;20052;-76
2023/10/16 00:45:48;;;;;;;9.98;3.88;;;;;;;5.79;100.00;102397.97;4888740;29;20095;-77
2023/10/16 00:48:16;;;;;;;10.05;3.13;;;;;;;5.83;100.00;102398.91;4851017;29;20083;-76
2023/10/16 00:50:44;;;;;;;9.70;3.25;;;;;;;5.86;100.00;102404.25;4883219;29;20408;-76
2023/10/16 00:53:12;;;;;;;8.80;3.58;;;;;;;5.86;100.00;102399.00;4873539;29;20405;-77
2023/10/16 00:55:38;;;;;;;8.70;3.13;;;;;;;5.91;100.00;102404.31;4876657;29;20416;-76
2023/10/16 00:58:07;;;;;;;6.90;2.85;;;;;;;5.92;100.00;102406.13;4864311;29;20033;-76
2023/10/16 01:00:38;;;;;;;9.45;3.42;;;;;;;5.90;100.00;102395.56;4851346;29;20124;-76
2023/10/16 01:03:06;;;;;;;8.50;4.00;;;;;;;5.89;100.00;102390.28;4879668;29;20048;-77
2023/10/16 01:05:33;;;;;;;5.00;2.85;;;;;;;5.94;100.00;102399.19;4894163;29;20025;-76
2023/10/16 01:08:02;;;;;;;9.73;2.95;;;;;;;5.93;100.00;102393.00;4874163;29;20041;-77
2023/10/16 01:10:34;;;;;;;8.15;2.80;;;;;;;5.93;100.00;102393.00;4899705;29;20037;-77
2023/10/16 01:13:01;;;;;;;7.88;3.25;;;;;;;5.94;100.00;102391.31;4877202;29;20157;-77
2023/10/16 01:15:27;;;;;;;5.28;3.00;;;;;;;5.91;100.00;102385.91;4837559;29;20080;-76
2023/10/16 01:17:53;;;;;;;7.00;3.30;;;;;;;5.91;100.00;102386.84;4858579;29;20041;-76
2023/10/16 01:20:18;;;;;;;7.82;3.35;;;;;;;5.92;100.00;102380.72;4881022;29;20041;-77
2023/10/16 01:22:45;;;;;;;9.35;3.60;;;;;;;5.88;100.00;102377.97;4879902;29;20130;-77
2023/10/16 01:25:11;;;;;;;12.82;4.13;;;;;;;5.84;100.00;102381.41;4855694;29;20581;-76
2023/10/16 01:27:40;;;;;;;8.98;3.45;;;;;;;5.74;100.00;102370.69;4867461;29;20139;-77
2023/10/16 01:30:06;;;;;;;9.60;3.67;;;;;;;5.70;100.00;102374.09;4865417;29;20096;-77
2023/10/16 01:32:32;;;;;;;6.43;3.10;;;;;;;5.70;100.00;102381.97;4875259;29;20468;-77
2023/10/16 01:34:59;;;;;;;7.88;3.78;;;;;;;5.69;100.00;102376.69;4880828;29;20025;-77
2023/10/16 01:37:25;;;;;;;8.38;3.40;;;;;;;5.67;100.00;102374.03;4852994;29;20507;-77
2023/10/16 01:39:55;;;;;;;8.18;3.08;;;;;;;5.67;100.00;102375.75;4890135;29;20112;-77
2023/10/16 01:42:21;;;;;;;8.32;3.30;;;;;;;5.65;100.00;102374.84;4888647;29;20037;-76
2023/10/16 01:44:51;;;;;;;9.10;3.67;;;;;;;5.59;100.00;102365.09;4881748;29;20055;-76
2023/10/16 01:47:17;;;;;;;7.18;3.33;;;;;;;5.55;100.00;102372.00;4868408;29;20180;-77
2023/10/16 01:49:44;;;;;;;8.30;3.83;;;;;;;5.54;100.00;102370.22;4898167;29;20123;-77
2023/10/16 01:52:11;;;;;;;7.63;3.40;;;;;;;5.55;100.00;102371.09;4897832;29;20055;-77
2023/10/16 01:54:39;;;;;;;8.13;3.60;;;;;;;5.56;100.00;102379.03;4885161;29;20051;-77
2023/10/16 01:57:12;;;;;;;9.52;4.20;;;;;;;5.59;100.00;102370.34;4881384;29;20036;-77
2023/10/16 01:59:40;;;;;;;8.95;3.97;;;;;;;5.58;100.00;102369.41;4881422;29;20037;-76
2023/10/16 02:02:05;;;;;;;14.57;3.80;;;;;;;5.59;100.00;102371.22;4881540;29;20518;-77
2023/10/16 02:04:31;;;;;;;9.68;4.60;;;;;;;5.56;100.00;102362.34;4867803;29;20076;-77
2023/10/16 02:06:56;;;;;;;10.98;4.30;;;;;;;5.56;100.00;102359.72;4855402;29;20037;-77
2023/10/16 02:09:23;;;;;;;11.35;4.30;;;;;;;5.55;100.00;102358.84;4863208;29;20036;-76
2023/10/16 02:11:49;;;;;;;13.05;4.53;;;;;;;5.54;100.00;102351.84;4881152;29;20036;-77
2023/10/16 02:14:14;;;;;;;10.90;4.47;;;;;;;5.52;100.00;102350.03;4868047;29;20104;-77
2023/10/16 02:16:41;;;;;;;9.68;4.05;;;;;;;5.51;100.00;102356.09;4868360;29;20497;-77
2023/10/16 02:19:07;;;;;;;7.10;4.20;;;;;;;5.51;100.00;102354.38;4856558;29;20044;-77
2023/10/16 02:21:33;;;;;;;7.68;3.97;;;;;;;5.48;100.00;102346.41;4896719;29;20049;-77
2023/10/16 02:24:03;;;;;;;17.23;4.85;;;;;;;5.49;100.00;102353.47;4880894;29;20037;-77
2023/10/16 02:26:30;;;;;;;6.80;4.25;;;;;;;5.48;100.00;102346.41;4897790;29;20037;-76
2023/10/16 02:29:00;;;;;;;9.13;4.28;;;;;;;5.46;100.00;102352.50;4868456;29;20045;-76
2023/10/16 02:31:25;;;;;;;8.80;4.38;;;;;;;5.45;100.00;102340.22;4865818;29;20461;-76
2023/10/16 02:33:54;;;;;;;9.23;4.30;;;;;;;5.49;100.00;102344.66;4878818;29;20123;-77
2023/10/16 02:36:21;;;;;;;7.95;4.18;;;;;;;5.49;100.00;102342.03;4892072;29;20597;-77
2023/10/16 02:38:56;;;;;;;8.02;4.20;;;;;;;5.49;100.00;102344.66;4884778;29;20072;-76
2023/10/16 02:41:22;;;;;;;9.52;4.45;;;;;;;5.49;100.00;102336.78;4897493;29;20040;-76
2023/10/16 02:43:48;;;;;;;8.30;4.80;;;;;;;5.50;100.00;102342.09;4897293;29;20043;-76
2023/10/16 02:46:18;;;;;;;8.77;4.72;;;;;;;5.48;100.00;102329.78;4885812;29;20048;-77
2023/10/16 02:48:44;;;;;;;9.40;4.65;;;;;;;5.50;100.00;102342.09;4891675;29;20045;-77
2023/10/16 02:51:10;;;;;;;7.03;4.03;;;;;;;5.50;100.00;102342.09;4871878;29;20064;-76
2023/10/16 02:53:41;;;;;;;11.43;4.10;;;;;;;5.53;100.00;102344.78;4867205;29;20060;-77
2023/10/16 02:56:14;;;;;;;9.83;4.43;;;;;;;5.52;100.00;102334.25;4880339;29;20036;-77
2023/10/16 02:58:46;;;;;;;14.05;4.57;;;;;;;5.52;100.00;102337.75;4868537;29;20040;-77
2023/10/16 03:01:18;;;;;;;5.82;4.30;;;;;;;5.51;100.00;102333.34;4897240;29;20466;-76
2023/10/16 03:03:46;;;;;;;6.90;4.07;;;;;;;5.52;100.00;102336.88;4883702;29;20072;-76
2023/10/16 03:06:12;;;;;;;6.78;4.65;;;;;;;5.50;100.00;102342.09;4880184;29;20131;-76
2023/10/16 03:08:38;;;;;;;8.32;4.20;;;;;;;5.50;100.00;102341.22;4867655;29;20132;-76
2023/10/16 03:11:06;;;;;;;9.77;4.70;;;;;;;5.45;100.00;102343.72;4870435;29;20119;-76
2023/10/16 03:13:36;;;;;;;8.45;4.40;;;;;;;5.39;100.00;102343.59;4868882;29;20473;-77
2023/10/16 03:16:07;;;;;;;7.18;3.90;;;;;;;5.31;100.00;102335.50;4865600;29;20036;-76
2023/10/16 03:18:34;;;;;;;7.13;4.18;;;;;;;5.26;100.00;102345.03;4888608;29;20032;-77
2023/10/16 03:21:26;;;;;;;6.22;4.18;;;;;;;5.18;100.00;102346.59;4876767;29;20029;-77
2023/10/16 03:23:51;;;;;;;;;;;;;;;5.20;100.00;102339.63;4861843;29;20072;-77
2023/10/16 03:26:25;;;;;;;9.00;4.38;;;;;;;5.08;100.00;102341.97;4874435;29;19920;-77
2023/10/16 03:28:54;;;;;;;7.30;4.15;;;;;;;5.01;100.00;102343.53;4877754;29;20131;-77
2023/10/16 03:31:21;;;;;;;10.60;4.30;;;;;;;4.99;100.00;102341.72;4880634;29;20472;-77
2023/10/16 03:33:47;;;;;;;9.60;4.30;;;;;;;4.98;100.00;102337.34;4876461;29;20037;-77
2023/10/16 03:36:15;;;;;;;8.05;4.40;;;;;;;4.92;100.00;102338.97;4893488;29;20037;-76
2023/10/16 03:38:41;;;;;;;8.43;4.40;;;;;;;4.91;100.00;102331.91;4888465;29;20146;-76
2023/10/16 03:43:57;;;;;;;8.90;3.90;;;;;;;4.89;100.00;102333.59;4879836;29;20461;-77
2023/10/16 03:46:28;;;;;;;9.43;4.55;;;;;;;4.89;100.00;102330.97;4892318;29;20041;-76
2023/10/16 03:48:57;;;;;;;6.68;4.55;;;;;;;4.89;100.00;102332.72;4896451;29;20041;-77
2023/10/16 03:51:24;;;;;;;6.15;4.38;;;;;;;4.87;100.00;102331.78;4881174;29;20055;-76
2023/10/16 03:53:52;;;;;;;7.00;4.18;;;;;;;4.85;100.00;102329.16;4877884;29;20049;-77
2023/10/16 03:56:18;;;;;;;8.90;4.82;;;;;;;4.84;100.00;102329.97;4887182;29;20092;-77
2023/10/16 03:58:44;;;;;;;7.28;4.60;;;;;;;4.83;100.00;102330.84;4849402;29;20053;-76
2023/10/16 04:01:10;;;;;;;9.07;4.80;;;;;;;4.80;100.00;102333.38;4885310;29;20040;-77
2023/10/16 04:03:56;;;;;;;9.95;4.35;;;;;;;4.73;100.00;102329.72;4883201;29;20064;-76
2023/10/16 04:06:22;;;;;;;10.32;4.57;;;;;;;4.73;100.00;102329.72;4861493;29;20060;-77
2023/10/16 04:08:53;;;;;;;8.55;4.72;;;;;;;4.73;100.00;102329.72;4879555;29;20044;-76
2023/10/16 04:11:21;;;;;;;6.60;4.88;;;;;;;4.71;100.00;102328.78;4896301;29;20068;-77
2023/10/16 04:13:47;;;;;;;12.30;5.28;;;;;;;4.70;100.00;102320.88;4870244;29;20086;-76
2023/10/16 04:18:51;;;;;;;7.43;5.18;;;;;;;4.71;100.00;102328.78;4884589;29;20358;-76
2023/10/16 04:31:56;;;;;;;10.15;5.30;;;;;;;4.88;100.00;102308.22;4862253;29;20044;-76
2023/10/16 04:50:29;;;;;;;7.97;5.28;;;;;;;5.00;100.00;102305.00;4877043;29;20028;-76
2023/10/16 05:03:44;;;;;;;11.05;5.80;;;;;;;5.15;100.00;102289.63;4891965;29;20043;-76
2023/10/16 05:06:27;;;;;;;9.52;5.50;;;;;;;5.17;100.00;102287.94;4880601;29;20493;-76
2023/10/16 05:09:44;;;;;;;8.73;5.78;;;;;;;5.17;100.00;102289.66;4881835;29;20056;-76
2023/10/16 05:17:46;;;;;;;13.10;5.43;;;;;;;5.26;100.00;102284.59;4878634;29;20373;-76
2023/10/16 06:14:45;;;;;;;11.50;5.50;;;;;;;5.21;100.00;102290.63;4864567;29;20048;-76
2023/10/16 06:17:15;;;;;;;10.70;5.25;;;;;;;5.20;100.00;102296.72;4862093;29;20449;-76
2023/10/16 06:19:42;;;;;;;15.60;5.25;;;;;;;5.15;100.00;102297.50;4885361;29;20477;-76
2023/10/16 06:22:09;;;;;;;9.73;5.13;;;;;;;5.12;100.00;102292.19;4886109;29;20021;-76
2023/10/16 06:24:53;;;;;;;10.43;5.43;;;;;;;5.08;100.00;102286.81;4879217;29;20047;-76
2023/10/16 06:27:19;;;;;;;12.50;5.90;;;;;;;5.06;100.00;102289.41;4877197;29;20412;-76
2023/10/16 06:29:53;;;;;;;10.45;5.40;;;;;;;5.04;100.00;102296.34;4880039;29;20045;-76
2023/10/16 06:32:25;;;;;;;9.80;5.13;;;;;;;5.03;100.00;102296.31;4890640;29;20037;-76
2023/10/16 06:35:00;;;;;;;9.38;5.88;;;;;;;5.02;100.00;102300.69;4877664;29;20044;-76
2023/10/16 06:37:31;;;;;;;9.30;5.18;;;;;;;5.02;100.00;102303.31;4880826;29;20140;-76
2023/10/16 06:40:01;;;;;;;15.03;6.10;;;;;;;5.08;100.00;102305.19;4892707;29;20025;-76
2023/10/16 06:42:29;;;;;;;12.90;6.28;;;;;;;5.11;100.00;102292.13;4878728;29;20068;-76
2023/10/16 06:44:56;;;;;;;8.93;5.75;;;;;;;5.15;100.00;102287.00;4895605;29;20044;-76
2023/10/16 06:47:35;;;;;;;10.68;6.38;;;;;;;5.20;100.00;102296.72;4875959;29;20043;-76
2023/10/16 06:51:15;;;;;;;10.75;5.25;;;;;;;5.22;100.00;102297.63;4876674;29;20151;-76
2023/10/16 06:53:03;;;;;;;12.48;5.93;;;;;;;5.24;100.00;102301.19;4866552;29;20064;-76
2023/10/16 06:55:28;;;;;;;7.88;5.47;;;;;;;5.27;100.00;102296.91;4897298;29;20043;-76
2023/10/16 06:57:55;;;;;;;10.23;5.63;;;;;;;5.31;100.00;102295.22;4880135;29;20042;-76
2023/10/16 07:00:25;;;;;;;12.73;6.07;;;;;;;5.32;100.00;102292.66;4887057;29;20407;-76
2023/10/16 07:02:54;;;;;;;12.77;6.07;;;;;;;5.35;100.00;102295.34;4886003;29;20052;-76
2023/10/16 07:05:24;;;;;;;10.95;5.50;;;;;;;5.36;100.00;102296.22;4866689;29;20169;-76
2023/10/16 07:07:56;;;;;;;10.50;5.27;;;;;;;5.36;100.00;102298.84;4868378;29;20043;-76
2023/10/16 07:10:25;;;;;;;8.82;5.05;;;;;;;5.39;100.00;102294.56;4884508;29;20052;-76
2023/10/16 07:13:00;;;;;;;12.35;5.75;;;;;;;5.45;100.00;102292.94;4877151;29;20045;-76
2023/10/16 07:15:29;;;;;;;10.10;6.00;;;;;;;5.52;100.00;102293.09;4861698;29;20041;-76
2023/10/16 07:17:55;;;;;;;12.70;6.03;;;;;;;5.57;100.00;102294.09;4869502;29;20189;-76
2023/10/16 07:20:30;;;;;;;13.98;5.30;;;;;;;5.64;100.00;102302.09;4870663;29;20048;-76
2023/10/16 07:22:59;;;;;;;8.82;5.43;;;;;;;5.66;100.00;102298.63;4878055;29;20037;-76
2023/10/16 07:28:12;;;;;;;8.52;5.78;;;;;;;5.74;100.00;102294.44;4852029;29;20090;-76
2023/10/16 07:30:42;;;;;;;12.73;5.35;;;;;;;5.75;100.00;102297.97;4879360;29;20041;-76
2023/10/16 07:33:15;;;;;;;10.93;5.93;;;;;;;5.79;100.00;102303.31;4874009;29;20048;-76
2023/10/16 07:35:44;;;;;;;11.15;5.55;;;;;;;5.82;100.00;102302.50;4889334;29;20545;-75
2023/10/16 07:38:20;;;;;;;9.18;6.10;;;;;;;5.87;100.00;102300.84;4879598;29;20033;-75
2023/10/16 07:40:51;;;;;;;12.60;6.43;;;;;;;5.91;100.00;102301.78;4896495;29;20060;-75
2023/10/16 07:43:27;;;;;;;;;;;;;;;6.01;100.00;102303.81;4879890;29;20048;-75
2023/10/16 07:46:16;;;;;;;11.00;6.10;;;;;;;6.03;100.00;102297.72;4893966;29;19970;-76
2023/10/16 07:48:46;;;;;;;9.07;5.65;;;;;;;6.09;100.00;102296.06;4859132;29;20061;-76
2023/10/16 07:51:15;;;;;;;12.55;6.28;;;;;;;6.17;100.00;102297.09;4872329;29;20084;-76
2023/10/16 07:53:41;;;;;;;18.05;10.50;;;;;;;6.24;100.00;102286.72;4858917;29;20065;-75
2023/10/16 07:56:19;;;;;;;11.77;6.70;;;;;;;6.32;100.00;102292.13;4882202;29;20092;-75
2023/10/16 07:58:48;;;;;;;13.55;6.82;;;;;;;6.38;100.00;102289.63;4881142;29;20067;-75
2023/10/16 08:01:17;;;;;;;16.35;7.88;;;;;;;6.44;100.00;102287.09;4885934;29;20040;-75
2023/10/16 08:03:46;;;;;;;16.88;6.88;;;;;;;6.52;100.00;102288.97;4869041;29;20128;-75
2023/10/16 08:06:17;;;;;;;9.98;6.30;;;;;;;6.57;100.00;102284.69;4884677;29;20044;-75
2023/10/16 08:09:29;;;;;;;12.60;5.70;;;;;;;6.66;100.00;102291.00;4896308;29;20155;-75
2023/10/16 08:11:43;;;;;;;13.40;5.93;;;;;;;6.81;100.00;102286.84;4896175;29;20056;-75
2023/10/16 08:14:09;;;;;;;8.95;5.97;;;;;;;6.93;100.00;102288.81;4896127;29;20586;-75
2023/10/16 08:16:38;;;;;;;13.20;6.00;;;;;;;7.04;100.00;102288.09;4889453;29;20041;-75
2023/10/16 08:19:14;;;;;;;8.25;5.13;;;;;;;7.15;100.00;102292.69;4874051;29;20060;-76
2023/10/16 08:21:43;;;;;;;10.60;4.75;;;;;;;7.23;100.00;102291.91;4896244;29;20055;-75
2023/10/16 08:24:16;;;;;;;8.07;5.30;;;;;;;7.27;100.00;102291.13;4895959;29;20044;-75
2023/10/16 08:26:45;;;;;;;13.05;5.60;;;;;;;7.33;100.00;102296.47;4879278;29;20044;-75
2023/10/16 08:31:44;;;;;;;12.82;5.22;;;;;;;7.46;100.00;102292.25;4865797;29;20097;-75
2023/10/16 08:34:13;;;;;;;11.27;5.65;;;;;;;7.60;100.00;102283.66;4877080;29;20106;-75
2023/10/16 08:36:39;;;;;;;10.07;5.75;;;;;;;7.72;100.00;102286.47;4848222;29;20045;-76
2023/10/16 08:39:15;;;;;;;7.72;4.88;;;;;;;7.79;100.00;102288.31;4898397;29;20037;-75
2023/10/16 08:41:51;;;;;;;9.80;5.25;;;;;;;7.89;100.00;102289.31;4886400;29;20029;-75
2023/10/16 08:44:18;;;;;;;8.77;5.40;;;;;;;7.99;100.00;102283.28;4899591;29;20032;-75
2023/10/16 08:49:22;;;;;;;7.22;4.60;;;;;;;8.21;100.00;102278.22;4892714;29;20364;-76
2023/10/16 08:52:03;;;;;;;7.40;4.13;;;;;;;8.26;100.00;102271.25;4851717;29;20069;-76
2023/10/16 08:57:16;;;;;;;6.70;4.30;;;;;;;8.53;100.00;102282.16;4876316;29;20345;-75
2023/10/16 08:59:43;;;;;;;9.98;4.40;;;;;;;8.68;100.00;102286.69;4880487;29;20044;-75
2023/10/16 09:02:13;;;;;;;10.95;4.70;;;;;;;8.80;100.00;102292.09;4899160;29;20037;-75
2023/10/16 09:04:42;;;;;;;11.35;4.72;;;;;;;8.93;100.00;102284.25;4874396;29;20044;-75
2023/10/16 09:07:11;;;;;;;9.25;4.13;;;;;;;9.07;100.00;102287.00;4881600;29;20493;-75
2023/10/16 09:09:41;;;;;;;9.23;4.05;;;;;;;9.19;100.00;102292.38;4899298;29;20028;-75
2023/10/16 09:12:10;;;;;;;12.02;4.28;;;;;;;9.32;100.00;102275.72;4899156;29;20475;-75
2023/10/16 09:14:39;;;;;;;8.25;3.42;;;;;;;9.41;100.00;102286.34;4893358;29;20124;-74
2023/10/16 09:17:06;;;;;;;7.72;4.05;;;;;;;9.46;100.00;102283.72;4873213;29;20033;-75
2023/10/16 09:19:35;;;;;;;7.93;3.80;;;;;;;9.58;100.00;102277.63;4874877;29;20042;-75
2023/10/16 09:22:05;;;;;;;14.68;4.75;;;;;;;9.68;100.00;102277.66;4872628;29;20116;-74
2023/10/16 09:24:33;;;;;;;7.93;3.63;;;;;;;9.81;100.00;102289.19;4852496;29;20142;-74
2023/10/16 09:27:13;;;;;;;8.10;3.45;;;;;;;9.93;100.00;102283.06;4890174;29;20040;-74
2023/10/16 09:29:44;;;;;;;6.13;3.10;;;;;;;10.05;100.00;102290.19;4879197;29;20041;-74
2023/10/16 09:32:10;;;;;;;;;;;;;;;10.19;100.00;102284.91;4880828;29;20045;-74
2023/10/16 09:34:36;;;;;;;9.20;3.55;;;;;;;10.32;100.00;102276.16;4889231;29;19920;-74
2023/10/16 09:37:20;;;;;;;9.05;3.40;;;;;;;10.47;98.96;102280.63;4858413;29;20037;-74
2023/10/16 09:39:48;;;;;;;6.40;2.80;;;;;;;10.59;99.20;102282.41;4870699;29;20396;-74
2023/10/16 09:42:14;;;;;;;9.95;3.42;;;;;;;10.68;95.13;102275.34;4889597;29;20052;-74
2023/10/16 09:45:08;;;;;;;8.52;3.47;;;;;;;10.78;96.11;102284.19;4882088;29;20052;-74
2023/10/16 09:47:35;;;;;;;9.25;3.33;;;;;;;10.89;93.70;102276.22;4881683;29;20123;-74
2023/10/16 09:50:12;;;;;;;6.97;3.25;;;;;;;10.91;89.82;102278.00;4883443;29;20516;-74
2023/10/16 09:52:39;;;;;;;7.20;2.45;;;;;;;10.95;92.54;102277.13;4898669;29;20503;-74
2023/10/16 09:55:05;;;;;;;5.97;2.60;;;;;;;11.02;91.34;102275.31;4882073;29;20036;-74
2023/10/16 09:57:32;;;;;;;8.07;2.40;;;;;;;11.06;90.46;102273.56;4898642;29;20049;-74
2023/10/16 10:00:23;;;;;;;5.13;2.10;;;;;;;11.10;88.62;102270.94;4898832;29;20476;-74
2023/10/16 10:02:51;;;;;;;4.45;2.22;;;;;;;11.27;90.53;102276.16;4874939;29;20056;-74
2023/10/16 10:05:21;;;;;;;3.45;2.40;;;;;;;11.36;89.45;102275.28;4872746;29;20046;-74
2023/10/16 10:07:49;;;;;;;4.68;2.13;;;;;;;11.45;87.19;102285.88;4861461;29;20037;-74
2023/10/16 10:13:08;;;;;;;7.15;2.22;;;;;;;11.76;90.10;102278.69;4874484;29;20056;-75
2023/10/16 10:15:38;;;;;;;3.08;1.40;;;;;;;11.92;85.92;102276.00;4897464;29;20492;-75
2023/10/16 10:20:58;;;;;;;6.90;1.40;;;;;;;12.10;83.08;102278.59;4868500;29;20061;-75
2023/10/16 10:23:27;;;;;;;4.00;1.48;;;;;;;12.19;84.40;102272.31;4877655;29;20059;-75
2023/10/16 10:25:56;;;;;;;2.75;1.35;;;;;;;12.25;82.90;102273.19;4868464;29;20049;-75
2023/10/16 10:28:22;;;;;;;5.22;1.58;;;;;;;12.36;82.59;102264.25;4884916;29;20120;-75
2023/10/16 10:30:49;;;;;;;3.90;1.15;;;;;;;12.56;81.09;102275.66;4880054;29;20536;-75
2023/10/16 10:34:03;;;;;;;4.88;1.75;;;;;;;12.75;83.85;102275.50;4866503;29;20024;-75
2023/10/16 10:36:34;;;;;;;5.18;2.10;;;;;;;12.94;85.42;102270.94;4895690;29;20035;-75
2023/10/16 10:41:54;;;;;;;5.03;1.67;;;;;;;13.06;78.22;102273.47;4873793;29;20067;-75
2023/10/16 10:44:35;;;;;;;3.67;1.30;;;;;;;13.04;79.21;102269.94;4897710;29;20068;-75
2023/10/16 10:47:03;;;;;;;4.43;1.83;;;;;;;13.05;80.50;102269.03;4875770;29;20374;-75
2023/10/16 10:49:35;;;;;;;3.65;1.35;;;;;;;13.14;79.22;102260.97;4884917;29;20398;-75
2023/10/16 10:52:01;;;;;;;3.25;1.23;;;;;;;13.22;76.59;102264.44;4878992;29;20094;-75
2023/10/16 10:54:27;;;;;;;4.75;1.25;;;;;;;13.32;78.38;102260.81;4890702;29;20120;-75
2023/10/16 10:56:59;;;;;;;6.28;2.13;;;;;;;13.53;81.50;102262.38;4896762;29;20164;-75
2023/10/16 10:59:41;;;;;;;8.25;1.95;;;;;;;13.60;78.24;102246.31;4862531;29;20055;-75
2023/10/16 11:04:46;;;;;;;5.70;1.67;;;;;;;13.79;76.21;102253.16;4887604;29;20031;-75
2023/10/16 11:10:00;;;;;;;3.42;1.50;;;;;;;13.52;73.78;102249.06;4877317;29;20048;-75
2023/10/16 11:12:25;;;;;;;5.65;1.80;;;;;;;13.53;75.78;102246.41;4897200;29;20412;-75
2023/10/16 11:14:53;;;;;;;6.80;3.30;;;;;;;13.77;80.13;102245.22;4872511;29;20049;-76
2023/10/16 11:17:33;;;;;;;7.00;1.92;;;;;;;14.11;81.41;102241.22;4865022;29;20033;-75
2023/10/16 11:20:11;;;;;;;6.45;1.88;;;;;;;14.33;71.53;102234.66;4872405;29;20047;-75
2023/10/16 11:22:43;;;;;;;4.65;1.48;;;;;;;14.61;73.76;102231.59;4880785;29;20053;-75
2023/10/16 11:25:13;;;;;;;5.63;1.60;;;;;;;14.53;66.73;102233.47;4897220;29;20068;-75
2023/10/16 11:27:42;;;;;;;5.35;1.70;;;;;;;14.35;68.16;102237.31;4862245;29;20045;-75
2023/10/16 11:30:18;;;;;;;3.90;1.80;;;;;;;14.50;72.46;102228.19;4876959;29;20025;-75
2023/10/16 11:32:47;;;;;;;6.22;1.85;;;;;;;14.38;66.54;102221.25;4876440;29;20041;-75
2023/10/16 11:35:17;;;;;;;4.40;1.65;;;;;;;14.39;68.71;102231.91;4889397;29;20028;-75
2023/10/16 11:37:44;;;;;;;2.70;1.25;;;;;;;14.52;68.21;102223.72;4896971;29;20044;-75
2023/10/16 11:40:31;;;;;;;3.80;1.38;;;;;;;14.45;67.74;102214.94;4897142;29;20067;-76
2023/10/16 11:42:58;;;;;;;3.55;1.60;;;;;;;14.51;72.55;102211.28;4878312;29;20481;-76
2023/10/16 11:45:24;;;;;;;4.82;2.00;;;;;;;14.49;70.04;102214.00;4885582;29;20037;-76
2023/10/16 11:50:41;;;;;;;2.38;1.20;;;;;;;14.31;70.60;102204.47;4888612;29;20100;-76
2023/10/16 11:53:08;;;;;;;3.83;1.30;;;;;;;14.22;70.99;102204.66;4891111;29;20060;-76
2023/10/16 11:55:38;;;;;;;3.53;1.25;;;;;;;14.08;67.75;102204.84;4881598;29;20528;-76
2023/10/16 11:58:06;;;;;;;8.17;1.83;;;;;;;14.03;68.35;102205.81;4860825;29;20049;-76
2023/10/16 12:00:44;;;;;;;6.15;1.40;;;;;;;13.93;68.08;102199.75;4877584;29;20036;-76
2023/10/16 12:03:14;;;;;;;4.38;1.38;;;;;;;13.89;71.21;102203.34;4896583;29;20503;-76
2023/10/16 12:05:43;;;;;;;3.73;1.70;;;;;;;13.82;71.51;102191.88;4866855;29;20044;-76
2023/10/16 12:08:10;;;;;;;3.40;1.30;;;;;;;13.78;67.83;102198.16;4896980;29;20456;-76
2023/10/16 12:10:36;;;;;;;2.53;1.15;;;;;;;13.79;72.31;102186.59;4882156;29;20041;-76
2023/10/16 12:13:03;;;;;;;4.03;1.35;;;;;;;13.80;67.48;102188.38;4888581;29;20535;-76
2023/10/16 12:15:29;;;;;;;5.82;1.38;;;;;;;13.81;70.39;102175.94;4870947;29;20390;-76
2023/10/16 12:17:55;;;;;;;5.20;1.65;;;;;;;13.96;70.36;102187.25;4886874;29;20076;-76
2023/10/16 12:20:30;;;;;;;4.30;1.25;;;;;;;14.19;72.64;102180.69;4872621;29;20049;-76
2023/10/16 12:22:56;;;;;;;3.28;1.50;;;;;;;14.32;70.26;102178.75;4886530;29;20080;-76
2023/10/16 12:25:23;;;;;;;3.70;1.40;;;;;;;14.52;69.02;102186.41;4900318;29;20025;-76
2023/10/16 12:27:50;;;;;;;5.65;1.63;;;;;;;14.74;69.02;102178.94;4885159;29;20512;-76
2023/10/16 12:30:17;;;;;;;4.40;1.17;;;;;;;15.01;68.87;102167.75;4881447;29;20477;-76
2023/10/16 12:32:46;;;;;;;5.93;1.50;;;;;;;15.26;69.88;102168.16;4863719;29;20433;-76
2023/10/16 12:35:18;;;;;;;2.28;1.17;;;;;;;15.48;65.46;102167.72;4885922;29;20032;-76
2023/10/16 12:37:44;;;;;;;6.78;1.73;;;;;;;15.61;61.99;102171.00;4899604;29;20056;-76
2023/10/16 12:40:28;;;;;;;3.15;1.25;;;;;;;15.70;62.17;102168.13;4865001;29;20369;-76
2023/10/16 12:42:55;;;;;;;3.83;1.23;;;;;;;15.74;63.57;102167.19;4895830;29;20040;-76
2023/10/16 12:45:25;;;;;;;2.92;1.10;;;;;;;15.66;62.76;102164.66;4892928;29;20068;-76
2023/10/16 12:47:51;;;;;;;3.90;0.98;;;;;;;15.57;63.43;102155.94;4889174;29;20041;-76
2023/10/16 12:50:25;;;;;;;3.53;1.25;;;;;;;15.62;65.19;102156.72;4900079;29;20025;-77
2023/10/16 12:53:03;;;;;;;6.63;1.48;;;;;;;15.59;64.00;102157.69;4899898;29;20095;-76
2023/10/16 12:55:28;;;;;;;5.95;1.50;;;;;;;15.52;62.50;102160.50;4855430;29;20520;-76
2023/10/16 12:57:54;;;;;;;5.05;1.92;;;;;;;15.47;63.12;102156.13;4891468;29;20488;-76
2023/10/16 13:00:21;;;;;;;10.65;1.60;;;;;;;15.57;65.06;102154.16;4865200;29;20548;-77
2023/10/16 13:02:48;;;;;;;3.75;1.30;;;;;;;15.58;62.55;102155.94;4899875;29;20445;-77
2023/10/16 13:05:15;;;;;;;2.20;0.95;;;;;;;15.48;61.34;102155.25;4870222;29;20041;-77
2023/10/16 13:07:44;;;;;;;4.72;1.25;;;;;;;15.29;62.15;102155.66;4899316;29;20369;-77
2023/10/16 13:10:15;;;;;;;4.43;1.15;;;;;;;15.15;62.78;102151.47;4899596;29;20051;-77
2023/10/16 13:12:41;;;;;;;3.55;1.27;;;;;;;15.08;65.51;102155.16;4879083;29;20131;-76
2023/10/16 13:15:15;;;;;;;7.13;1.42;;;;;;;15.22;63.05;102149.56;4864423;29;20041;-77
2023/10/16 13:17:41;;;;;;;3.08;1.17;;;;;;;15.44;64.82;102152.66;4850052;29;20097;-77
2023/10/16 13:20:19;;;;;;;4.72;1.40;;;;;;;15.62;61.28;102152.25;4881008;29;20481;-76
2023/10/16 13:22:49;;;;;;;4.95;1.40;;;;;;;15.79;65.40;102141.25;4877427;29;20442;-77
2023/10/16 13:25:18;;;;;;;5.60;1.30;;;;;;;15.77;61.29;102151.06;4864262;29;20041;-77
2023/10/16 13:27:44;;;;;;;3.55;1.17;;;;;;;15.85;63.52;102134.88;4862161;29;20396;-76
2023/10/16 13:30:11;;;;;;;5.53;1.30;;;;;;;16.03;63.38;102136.25;4888669;29;20055;-77
2023/10/16 13:32:41;;;;;;;3.75;1.00;;;;;;;16.01;61.06;102143.41;4899444;29;20104;-77
2023/10/16 13:35:12;;;;;;;1.67;0.80;;;;;;;16.10;60.77;102140.53;4867724;29;20036;-77
2023/10/16 13:37:44;;;;;;;4.80;1.20;;;;;;;15.93;57.89;102140.06;4880506;29;20041;-77
2023/10/16 13:40:20;;;;;;;3.28;1.20;;;;;;;16.01;58.34;102138.94;4899367;29;20036;-77
2023/10/16 13:42:54;;;;;;;3.45;0.90;;;;;;;16.06;59.26;102137.03;4885913;29;20041;-77
2023/10/16 13:45:21;;;;;;;3.30;1.00;;;;;;;15.90;59.68;102143.69;4887590;29;20048;-77
2023/10/16 13:47:49;;;;;;;3.35;1.30;;;;;;;16.01;61.97;102136.28;4887378;29;20040;-77